Terminal Aerodrome Forecast
Issued by NWS Cleveland, OH

Home | Current Version | Previous Version | Text Only | Print | Product List | Glossary On
Versions: 1 2 3 4 5 6 7 8 9 10 11 12 13 14 15
431
FTUS41 KCLE 260530
TAFERI
TAF
KERI 260530Z 2606/2706 25005KT 6SM BR FEW060 SCT250
     FM260800 35010KT P6SM FEW250
     FM261600 29008KT P6SM FEW250
     FM270000 20003KT P6SM SKC=

USA.gov is the U.S. government's official web portal to all federal, state and local government web resources and services.